Terminal Aerodrome Forecast
Issued by NWS

Home | Current Version | Previous Version | Text Only | Print | Product List | Glossary On
Versions: 1 2 3 4 5 6 7 8 9 10 11 12 13 14 15 16
000
FTUS41 KBGM 242325
TAFRME
TAF
KRME 242325Z 2500/2524 VRB06KT P6SM SCT090 BKN200
     FM250800 VRB03KT P6SM OVC060
     FM251200 12006KT P6SM OVC060
     FM251700 22011KT P6SM OVC040=

USA.gov is the U.S. government's official web portal to all federal, state and local government web resources and services.